Flight Track Log - Related Links

Times and Time Zones

All times are in EDT time to prevent confusion due to time zone crossing. See the N6593M flight status page for this flight to view local times or setup timezone preferences in your user account.

Time Position Orientation Groundspeed Altitude Reporting Facility
EDT Latitude Longitude Course Direction KTS MPH feet Rate Location/Type
Wed 08:07:50 AM 36.8992 -76.2022 321° Northwest 123 142 400  Level Washington Center
Wed 08:08:56 AM 36.9222 -76.2258 321° Northwest 128 147 1,800 1,246 Climbing Washington Center
Wed 08:10:00 AM 36.9197 -76.2700 266° West 123 142 3,100 1,161 Climbing Washington Center
Wed 08:11:00 AM 36.9258 -76.3089 281° West 122 140 4,200 556 Climbing Washington Center
Wed 08:16:39 AM 37.1060 -76.4680 281° West 162 186 6,800 439 Climbing FlightAware ADS-B
Wed 08:16:55 AM 37.1160 -76.4750 331° Northwest 162 186 6,800  Level FlightAware ADS-B
Wed 08:17:19 AM 37.1320 -76.4860 331° Northwest 163 188 6,800  Level FlightAware ADS-B
Wed 08:17:38 AM 37.1440 -76.4950 329° Northwest 163 188 6,800  Level FlightAware ADS-B
Wed 08:17:56 AM 37.1560 -76.5030 332° Northwest 163 188 6,800  Level FlightAware ADS-B
Wed 08:18:20 AM 37.1720 -76.5140 331° Northwest 163 188 6,800  Level FlightAware ADS-B
Wed 08:18:32 AM 37.1790 -76.5190 330° Northwest 163 188 6,800  Level FlightAware ADS-B
Wed 08:18:55 AM 37.1950 -76.5310 329° Northwest 162 186 6,800  Level FlightAware ADS-B
Wed 08:19:16 AM 37.2070 -76.5390 332° Northwest 161 185 6,800  Level FlightAware ADS-B
Wed 08:19:37 AM 37.2220 -76.5490 332° Northwest 161 185 6,800  Level FlightAware ADS-B
Wed 08:19:54 AM 37.2330 -76.5580 327° Northwest 161 185 6,800  Level FlightAware ADS-B
Wed 08:20:19 AM 37.2480 -76.5680 332° Northwest 161 185 6,800  Level FlightAware ADS-B
Wed 08:20:37 AM 37.2610 -76.5770 331° Northwest 161 185 6,800  Level FlightAware ADS-B
Wed 08:21:01 AM 37.2770 -76.5890 329° Northwest 161 185 6,800  Level FlightAware ADS-B
Wed 08:21:19 AM 37.2880 -76.5970 330° Northwest 161 185 6,800  Level FlightAware ADS-B
Wed 08:21:43 AM 37.3040 -76.6080 331° Northwest 161 185 6,800  Level FlightAware ADS-B
Wed 08:22:01 AM 37.3160 -76.6170 329° Northwest 160 184 6,800  Level FlightAware ADS-B
Wed 08:22:29 AM 37.3330 -76.6290 331° Northwest 160 184 6,800  Level FlightAware ADS-B
Wed 08:22:57 AM 37.3490 -76.6400 331° Northwest 160 184 6,800  Level FlightAware ADS-B
Wed 08:23:22 AM 37.3650 -76.6510 331° Northwest 161 185 6,800  Level FlightAware ADS-B
Wed 08:23:49 AM 37.3800 -76.6620 330° Northwest 161 185 6,800 103 Level FlightAware ADS-B
Wed 08:25:18 AM 37.4500 -76.7000 330° Northwest 166 191 7,000 81 Climbing Potomac TRACON
Wed 08:26:18 AM 37.4833 -76.7167 338° Northwest 163 188 7,000  Level Potomac TRACON
Wed 08:27:18 AM 37.5333 -76.7000 15° North 159 183 7,000  Level Potomac TRACON
Wed 08:28:12 AM 37.5667 -76.7000 360° North 162 186 7,000  Level Potomac TRACON
Wed 08:29:12 AM 37.6167 -76.7000 360° North 162 186 7,000  Level Potomac TRACON
Wed 08:30:12 AM 37.6667 -76.7000 360° North 164 189 7,000  Level Potomac TRACON
Wed 08:31:13 AM 37.7000 -76.7000 360° North 170 196 7,000 -30 Level Potomac TRACON
Wed 08:36:50 AM 37.9560 -76.6750 360° North 150 173 6,800 -32 Descending FlightAware ADS-B
Wed 08:37:23 AM 37.9850 -76.6730 North 150 173 6,800  Level FlightAware ADS-B
Wed 08:37:50 AM 38.0010 -76.6720 North 150 173 6,800 135 Level FlightAware ADS-B
Wed 08:38:52 AM 38.0475 -76.6728 North 160 184 7,000  Climbing Washington Center
Wed 08:44:30 AM 38.2770 -76.5390 North 163 188 6,800 -33 Descending FlightAware ADS-B
Wed 08:44:55 AM 38.2950 -76.5270 28° Northeast 163 188 6,800  Level FlightAware ADS-B
Wed 08:45:11 AM 38.3040 -76.5200 31° Northeast 163 188 6,800  Level FlightAware ADS-B
Wed 08:45:35 AM 38.3220 -76.5080 28° Northeast 163 188 6,800  Level FlightAware ADS-B
Wed 08:46:44 AM 38.3670 -76.4750 30° Northeast 162 186 6,800  Level FlightAware ADS-B
Wed 08:47:39 AM 38.4050 -76.4490 30° Northeast 162 186 6,800  Level FlightAware ADS-B
Wed 08:48:12 AM 38.4240 -76.4350 30° Northeast 162 186 6,800  Level FlightAware ADS-B
Wed 08:48:59 AM 38.4080 -76.4460 208° Southwest 162 186 6,800  Level FlightAware ADS-B
Wed 08:49:19 AM 38.4700 -76.4020 29° Northeast 162 186 6,800  Level FlightAware ADS-B
Wed 08:49:44 AM 38.4870 -76.3910 27° Northeast 163 188 6,800  Level FlightAware ADS-B
Wed 08:50:04 AM 38.5000 -76.3810 31° Northeast 163 188 6,800  Level FlightAware ADS-B
Wed 08:50:25 AM 38.5140 -76.3720 27° Northeast 163 188 6,800  Level FlightAware ADS-B
Wed 08:50:52 AM 38.5290 -76.3610 30° Northeast 163 188 6,800  Level FlightAware ADS-B
Wed 08:51:42 AM 38.5140 -76.3720 210° Southwest 162 186 6,800  Level FlightAware ADS-B
Wed 08:52:17 AM 38.5860 -76.3200 29° Northeast 163 188 6,800  Level FlightAware ADS-B
Wed 08:52:44 AM 38.6010 -76.3090 30° Northeast 163 188 6,800  Level FlightAware ADS-B
Wed 08:53:02 AM 38.6150 -76.3000 27° Northeast 162 186 6,800  Level FlightAware ADS-B
Wed 08:53:12 AM 38.6250 -76.2970 13° North 150 173 6,800  Level FlightAware ADS-B
Wed 08:53:38 AM 38.6440 -76.2920 12° North 151 174 6,800  Level FlightAware ADS-B
Wed 08:53:58 AM 38.6580 -76.2870 16° North 152 175 6,800  Level FlightAware ADS-B
Wed 08:54:18 AM 38.6700 -76.2830 15° North 152 175 6,800  Level FlightAware ADS-B
Wed 08:54:46 AM 38.6900 -76.2780 11° North 151 174 6,800  Level FlightAware ADS-B
Wed 08:55:10 AM 38.7060 -76.2730 14° North 150 173 6,800  Level FlightAware ADS-B
Wed 08:55:30 AM 38.7240 -76.2760 353° North 149 171 6,800  Level FlightAware ADS-B
Wed 08:55:45 AM 38.7350 -76.2780 352° North 149 171 6,800  Level FlightAware ADS-B
Wed 08:56:05 AM 38.7500 -76.2810 351° North 149 171 6,800  Level FlightAware ADS-B
Wed 08:56:25 AM 38.7620 -76.2840 349° North 149 171 6,800  Level FlightAware ADS-B
Wed 08:56:45 AM 38.7780 -76.2870 352° North 150 173 6,800  Level FlightAware ADS-B
Wed 08:57:08 AM 38.7940 -76.2900 352° North 150 173 6,800  Level FlightAware ADS-B
Wed 08:57:28 AM 38.8090 -76.2930 351° North 150 173 6,800  Level FlightAware ADS-B
Wed 08:57:48 AM 38.8230 -76.2960 351° North 150 173 6,800  Level FlightAware ADS-B
Wed 08:58:09 AM 38.8370 -76.2990 351° North 150 173 6,800  Level FlightAware ADS-B
Wed 08:58:34 AM 38.8560 -76.3030 351° North 150 173 6,800  Level FlightAware ADS-B
Wed 08:58:49 AM 38.8680 -76.3060 349° North 150 173 6,800  Level FlightAware ADS-B
Wed 08:59:04 AM 38.8790 -76.3080 352° North 150 173 6,800  Level FlightAware ADS-B
Wed 08:59:25 AM 38.8930 -76.3110 351° North 149 171 6,800  Level FlightAware ADS-B
Wed 08:59:55 AM 38.9140 -76.3150 352° North 149 171 6,800  Level FlightAware ADS-B
Wed 08:59:58 AM 38.9150 -76.3150 360° North 149 171 6,800  Level FlightAware ADS-B
Wed 09:00:39 AM 38.9470 -76.3220 350° North 149 171 6,800  Level FlightAware ADS-B
Wed 09:00:59 AM 38.9600 -76.3240 353° North 149 171 6,800  Level FlightAware ADS-B
Wed 09:01:14 AM 38.9700 -76.3260 351° North 151 174 6,800  Level FlightAware ADS-B
Wed 09:01:34 AM 38.9840 -76.3290 351° North 150 173 6,800  Level FlightAware ADS-B
Wed 09:01:55 AM 38.9980 -76.3390 331° Northwest 153 176 6,800  Level FlightAware ADS-B
Wed 09:02:00 AM 39.0000 -76.3440 297° West 149 171 6,800  Level FlightAware ADS-B
Wed 09:02:15 AM 39.0050 -76.3540 303° West 152 175 6,800  Level FlightAware ADS-B
Wed 09:02:25 AM 39.0100 -76.3620 309° West 149 171 6,800  Level FlightAware ADS-B
Wed 09:03:00 AM 39.0200 -76.3810 304° West 148 170 6,800  Level FlightAware ADS-B
Wed 09:03:20 AM 39.0330 -76.4040 306° West 148 170 6,800  Level FlightAware ADS-B
Wed 09:03:35 AM 39.0390 -76.4140 308° West 149 171 6,800  Level FlightAware ADS-B
Wed 09:03:56 AM 39.0470 -76.4300 303° West 154 177 6,800  Level FlightAware ADS-B
Wed 09:04:16 AM 39.0560 -76.4460 306° West 154 177 6,800 -194 Level FlightAware ADS-B
Wed 09:04:27 AM 39.0580 -76.4540 288° West 157 181 6,700 -429 Descending FlightAware ADS-B
Wed 09:04:44 AM 39.0590 -76.4690 275° West 162 186 6,600 -462 Descending FlightAware ADS-B
Wed 09:05:06 AM 39.0630 -76.4930 282° West 165 190 6,400 -511 Descending FlightAware ADS-B
Wed 09:05:31 AM 39.0680 -76.5180 284° West 166 191 6,200 -533 Descending FlightAware ADS-B
Wed 09:05:51 AM 39.0710 -76.5370 282° West 166 191 6,000 -500 Descending FlightAware ADS-B
Wed 09:06:07 AM 39.0740 -76.5530 284° West 166 191 5,900 -293 Descending FlightAware ADS-B
Wed 09:06:32 AM 39.0780 -76.5760 283° West 161 185 5,800 -133 Descending FlightAware ADS-B
Wed 09:06:52 AM 39.0810 -76.5950 282° West 157 181 5,800  Level FlightAware ADS-B
Wed 09:07:12 AM 39.0840 -76.6130 282° West 156 180 5,800  Level FlightAware ADS-B
Wed 09:07:32 AM 39.0860 -76.6310 278° West 154 177 5,800  Level FlightAware ADS-B
Wed 09:07:52 AM 39.0890 -76.6490 282° West 154 177 5,800  Level FlightAware ADS-B
Wed 09:08:07 AM 39.0910 -76.6620 281° West 153 176 5,800  Level FlightAware ADS-B
Wed 09:08:27 AM 39.0940 -76.6800 282° West 153 176 5,800  Level FlightAware ADS-B
Wed 09:08:42 AM 39.0960 -76.6920 282° West 153 176 5,800  Level FlightAware ADS-B
Wed 09:09:02 AM 39.0990 -76.7100 282° West 154 177 5,800  Level FlightAware ADS-B
Wed 09:09:26 AM 39.1010 -76.7260 279° West 154 177 5,800  Level FlightAware ADS-B
Wed 09:09:42 AM 39.1040 -76.7470 280° West 152 175 5,800  Level FlightAware ADS-B
Wed 09:10:03 AM 39.1070 -76.7660 282° West 153 176 5,800  Level FlightAware ADS-B
Wed 09:10:23 AM 39.1100 -76.7850 282° West 154 177 5,800  Level FlightAware ADS-B
Wed 09:10:43 AM 39.1130 -76.8020 283° West 154 177 5,800 -200 Level FlightAware ADS-B
Wed 09:10:53 AM 39.1140 -76.8120 277° West 158 182 5,700 -514 Descending FlightAware ADS-B
Wed 09:11:18 AM 39.1180 -76.8350 283° West 163 188 5,500 -450 Descending FlightAware ADS-B
Wed 09:11:33 AM 39.1200 -76.8490 280° West 165 190 5,400 -387 Descending FlightAware ADS-B
Wed 09:11:49 AM 39.1220 -76.8580 286° West 169 194 5,300 -615 Descending FlightAware ADS-B
Wed 09:12:12 AM 39.1250 -76.8780 281° West 175 201 5,000 -955 Descending FlightAware ADS-B
Wed 09:12:33 AM 39.1290 -76.9100 279° West 177 204 4,600 -878 Descending FlightAware ADS-B
Wed 09:12:53 AM 39.1320 -76.9280 282° West 178 205 4,400 -682 Descending FlightAware ADS-B
Wed 09:13:17 AM 39.1360 -76.9540 281° West 178 205 4,100 -818 Descending FlightAware ADS-B
Wed 09:13:37 AM 39.1390 -76.9750 280° West 178 205 3,800 -900 Descending FlightAware ADS-B
Wed 09:13:57 AM 39.1430 -76.9970 283° West 178 205 3,500 -900 Descending FlightAware ADS-B
Wed 09:14:17 AM 39.1460 -77.0180 280° West 178 205 3,200 -840 Descending FlightAware ADS-B
Wed 09:14:47 AM 39.1510 -77.0490 282° West 179 206 2,800 -800 Descending FlightAware ADS-B
Wed 09:15:02 AM 39.1530 -77.0660 279° West 178 205 2,600 -686 Descending FlightAware ADS-B
Wed 09:15:22 AM 39.1560 -77.0830 283° West 173 199 2,400 -800 Descending FlightAware ADS-B
Wed 09:15:47 AM 39.1600 -77.1110 280° West 170 196 2,000 -1,029 Descending FlightAware ADS-B
Wed 09:15:57 AM 39.1630 -77.1200 293° West 165 190 1,800 -1,200 Descending FlightAware ADS-B
Wed 09:16:07 AM 39.1650 -77.1260 293° West 162 186 1,600 -727 Descending FlightAware ADS-B
Wed 09:16:30 AM 39.1740 -77.1450 301° West 143 165 1,400 -439 Descending FlightAware ADS-B
Wed 09:16:48 AM 39.1810 -77.1560 309° West 130 150 1,300 -261 Descending FlightAware ADS-B
Wed 09:17:16 AM 39.1890 -77.1700 306° West 112 129 1,200 -333 Descending FlightAware ADS-B
Wed 09:17:24 AM 39.1890 -77.1740 270° West 106 122 1,100 -750 Descending FlightAware ADS-B
Wed 09:17:48 AM 39.1800 -77.1830 218° Southwest 88 101 800 -800 Descending FlightAware ADS-B
Wed 09:18:09 AM 39.1750 -77.1770 137° Southeast 85 98 500 -682 Descending FlightAware ADS-B
Wed 09:18:32 AM 39.1690 -77.1670 128° Southeast 55 63 300 -522 Descending FlightAware ADS-B

Login

Don't have an account? Register now (free) for customized features, flight alerts, and more!